createdAt,value
2022-12-08T00:01:33.401Z,4.80
2022-12-08T00:04:03.571Z,4.70
2022-12-08T00:07:00.168Z,4.70
2022-12-08T00:09:40.170Z,4.80
2022-12-08T00:12:16.534Z,4.80
2022-12-08T00:14:47.508Z,4.80
2022-12-08T00:17:18.742Z,4.80
2022-12-08T00:19:46.136Z,4.80
2022-12-08T00:22:15.164Z,4.80
2022-12-08T00:24:45.076Z,4.80
2022-12-08T00:27:15.332Z,4.80
2022-12-08T00:29:44.885Z,4.80
2022-12-08T00:32:11.912Z,4.80
2022-12-08T00:34:38.690Z,4.80
2022-12-08T00:37:06.458Z,4.80
2022-12-08T00:39:33.377Z,4.80
2022-12-08T00:42:12.165Z,4.80
2022-12-08T00:44:42.992Z,4.80
2022-12-08T00:47:11.460Z,4.80
2022-12-08T00:49:38.285Z,4.70
2022-12-08T00:52:05.718Z,4.70
2022-12-08T00:54:32.841Z,4.70
2022-12-08T00:56:59.660Z,4.70
2022-12-08T00:59:26.357Z,4.70
2022-12-08T01:01:54.407Z,4.70
2022-12-08T01:04:21.350Z,4.70
2022-12-08T01:06:48.522Z,4.70
2022-12-08T01:09:17.630Z,4.60
2022-12-08T01:11:45.888Z,4.60
2022-12-08T01:14:13.514Z,4.60
2022-12-08T01:16:44.040Z,4.60
2022-12-08T01:19:14.124Z,4.50
2022-12-08T01:21:42.168Z,4.50
2022-12-08T01:24:18.539Z,4.60
2022-12-08T01:26:48.116Z,4.50
2022-12-08T01:29:15.636Z,4.50
2022-12-08T01:31:42.861Z,4.60
2022-12-08T01:34:11.415Z,4.50
2022-12-08T01:36:39.027Z,4.50
2022-12-08T01:39:16.323Z,4.50
2022-12-08T01:41:45.050Z,4.50
2022-12-08T01:44:16.852Z,4.50
2022-12-08T01:46:48.496Z,4.60
2022-12-08T01:49:24.346Z,4.70
2022-12-08T01:52:09.052Z,4.80
2022-12-08T01:55:02.187Z,4.70
2022-12-08T01:57:41.461Z,4.70
2022-12-08T02:00:17.915Z,4.60
2022-12-08T02:03:02.700Z,4.50
2022-12-08T02:05:38.060Z,4.60
2022-12-08T02:08:12.501Z,4.70
2022-12-08T02:10:42.647Z,4.60
2022-12-08T02:13:16.275Z,4.60
2022-12-08T02:16:14.844Z,4.60
2022-12-08T02:19:31.115Z,4.70
2022-12-08T02:22:15.872Z,4.60
2022-12-08T02:25:08.708Z,4.60
2022-12-08T02:28:03.299Z,4.60
2022-12-08T02:31:05.299Z,4.60
2022-12-08T02:34:06.999Z,4.50
2022-12-08T02:37:02.168Z,4.50
2022-12-08T02:39:52.139Z,4.50
2022-12-08T02:42:32.289Z,4.60
2022-12-08T02:45:08.590Z,4.60
2022-12-08T02:47:36.207Z,4.60
2022-12-08T02:50:04.766Z,4.70
2022-12-08T02:52:31.550Z,4.60
2022-12-08T02:55:09.649Z,4.60
2022-12-08T02:58:05.579Z,4.70
2022-12-08T03:00:58.088Z,4.70
2022-12-08T03:04:02.056Z,4.60
2022-12-08T03:06:56.210Z,4.60
2022-12-08T03:09:49.862Z,4.60
2022-12-08T03:13:00.084Z,4.60
2022-12-08T03:15:27.691Z,4.60
2022-12-08T03:17:58.908Z,4.60
2022-12-08T03:20:32.873Z,4.60
2022-12-08T03:23:03.013Z,4.60
2022-12-08T03:25:37.800Z,4.60
2022-12-08T03:28:05.924Z,4.60
2022-12-08T03:30:43.180Z,4.50
2022-12-08T03:33:38.700Z,4.40
2022-12-08T03:36:13.375Z,4.30
2022-12-08T03:38:45.362Z,4.30
2022-12-08T03:41:18.547Z,4.40
2022-12-08T03:43:55.692Z,4.40
2022-12-08T03:48:51.379Z,4.30
2022-12-08T03:51:18.676Z,4.40
2022-12-08T03:53:52.377Z,4.30
2022-12-08T03:56:31.603Z,4.40
2022-12-08T03:59:00.243Z,4.40
2022-12-08T04:01:31.768Z,4.40
2022-12-08T04:03:58.922Z,4.40
2022-12-08T04:06:26.919Z,4.40
2022-12-08T04:08:53.801Z,4.40
2022-12-08T04:11:20.991Z,4.40
2022-12-08T04:13:47.905Z,4.40
2022-12-08T04:16:22.278Z,4.50
2022-12-08T04:18:49.206Z,4.50
2022-12-08T04:21:16.302Z,4.60
2022-12-08T04:23:43.320Z,4.70
2022-12-08T04:26:12.499Z,4.60
2022-12-08T04:28:39.439Z,4.50
2022-12-08T04:31:07.126Z,4.60
2022-12-08T04:33:35.320Z,4.50
2022-12-08T04:36:04.668Z,4.50
2022-12-08T04:38:33.950Z,4.40
2022-12-08T04:41:01.923Z,4.40
2022-12-08T04:43:29.253Z,4.30
2022-12-08T04:45:58.117Z,4.30
2022-12-08T04:48:24.968Z,4.20
2022-12-08T04:50:51.819Z,4.20
2022-12-08T04:53:19.714Z,4.20
2022-12-08T04:55:48.535Z,4.20
2022-12-08T04:58:18.871Z,4.20
2022-12-08T05:00:48.255Z,4.20
2022-12-08T05:03:28.321Z,4.20
2022-12-08T05:05:58.858Z,4.10
2022-12-08T05:08:25.886Z,4.10
2022-12-08T05:10:52.765Z,4.20
2022-12-08T05:13:19.729Z,4.20
2022-12-08T05:15:46.559Z,4.20
2022-12-08T05:18:13.600Z,4.20
2022-12-08T05:20:40.345Z,4.20
2022-12-08T05:23:07.036Z,4.10
2022-12-08T05:25:33.755Z,4.10
2022-12-08T05:28:32.857Z,4.00
2022-12-08T05:30:49.128Z,4.00
2022-12-08T05:33:16.347Z,4.00
2022-12-08T05:35:43.577Z,4.00
2022-12-08T05:38:11.536Z,3.90
2022-12-08T05:40:40.724Z,4.00
2022-12-08T05:43:07.706Z,4.00
2022-12-08T05:45:34.920Z,4.00
2022-12-08T05:48:02.115Z,4.00
2022-12-08T05:50:29.088Z,4.00
2022-12-08T05:52:55.840Z,4.10
2022-12-08T05:55:24.695Z,4.00
2022-12-08T05:57:52.703Z,4.10
2022-12-08T06:00:20.807Z,4.10
2022-12-08T06:02:47.700Z,4.10
2022-12-08T06:05:14.778Z,4.00
2022-12-08T06:07:41.560Z,4.00
2022-12-08T06:10:08.972Z,4.00
2022-12-08T06:12:35.781Z,4.00
2022-12-08T06:15:02.902Z,3.90
2022-12-08T06:17:29.597Z,3.90
2022-12-08T06:19:58.710Z,3.80
2022-12-08T06:22:25.566Z,3.90
2022-12-08T06:24:52.478Z,3.80
2022-12-08T06:27:19.234Z,3.70
2022-12-08T06:29:46.000Z,3.70
2022-12-08T06:32:13.171Z,3.80
2022-12-08T06:34:39.929Z,3.70
2022-12-08T06:37:06.646Z,3.70
2022-12-08T06:39:33.410Z,3.70
2022-12-08T06:42:20.055Z,3.70
2022-12-08T06:44:47.704Z,3.60
2022-12-08T06:47:14.517Z,3.60
2022-12-08T06:49:41.376Z,3.50
2022-12-08T06:52:12.366Z,3.50
2022-12-08T06:54:39.153Z,3.50
2022-12-08T06:57:05.919Z,3.60
2022-12-08T06:59:32.785Z,3.70
2022-12-08T07:01:59.660Z,3.80
2022-12-08T07:04:26.511Z,3.80
2022-12-08T07:06:53.213Z,3.80
2022-12-08T07:09:20.030Z,3.90
2022-12-08T07:11:46.783Z,3.90
2022-12-08T07:14:13.938Z,3.90
2022-12-08T07:16:40.776Z,3.80
2022-12-08T07:19:07.776Z,3.90
2022-12-08T07:21:34.482Z,3.90
2022-12-08T07:24:01.482Z,3.80
2022-12-08T07:26:30.675Z,3.80
2022-12-08T07:28:57.409Z,3.90
2022-12-08T07:31:25.707Z,3.80
2022-12-08T07:33:53.119Z,3.80
2022-12-08T07:36:19.890Z,3.80
2022-12-08T07:38:47.549Z,3.70
2022-12-08T07:41:19.553Z,3.70
2022-12-08T07:43:46.976Z,3.70
2022-12-08T07:46:20.063Z,3.70
2022-12-08T07:48:47.900Z,3.70
2022-12-08T07:51:16.614Z,3.70
2022-12-08T07:53:51.693Z,3.70
2022-12-08T07:56:23.624Z,3.70
2022-12-08T07:58:50.751Z,3.70
2022-12-08T08:01:30.134Z,3.70
2022-12-08T08:04:01.711Z,3.70
2022-12-08T08:06:28.841Z,3.70
2022-12-08T08:08:55.702Z,3.70
2022-12-08T08:11:23.298Z,3.70
2022-12-08T08:13:52.891Z,3.80
2022-12-08T08:16:20.557Z,3.90
2022-12-08T08:18:50.443Z,3.90
2022-12-08T08:24:06.100Z,3.80
2022-12-08T08:26:32.905Z,3.80
2022-12-08T08:28:59.736Z,3.80
2022-12-08T08:31:27.455Z,3.70
2022-12-08T08:33:56.698Z,3.70
2022-12-08T08:36:23.671Z,3.80
2022-12-08T08:38:50.615Z,3.80
2022-12-08T08:41:17.348Z,3.80
2022-12-08T08:43:44.192Z,3.80
2022-12-08T08:46:11.146Z,3.80
2022-12-08T08:48:38.160Z,3.70
2022-12-08T08:51:14.266Z,3.80
2022-12-08T08:53:41.715Z,3.80
2022-12-08T08:56:15.038Z,3.80
2022-12-08T08:58:44.721Z,3.90
2022-12-08T09:01:24.392Z,3.90
2022-12-08T09:03:52.273Z,4.00
2022-12-08T09:06:20.222Z,3.90
2022-12-08T09:08:48.258Z,4.00
2022-12-08T09:11:16.003Z,4.10
2022-12-08T09:13:42.827Z,4.00
2022-12-08T09:16:13.695Z,4.00
2022-12-08T09:18:40.608Z,3.90
2022-12-08T09:21:15.045Z,3.90
2022-12-08T09:23:42.839Z,4.00
2022-12-08T09:26:09.923Z,4.00
2022-12-08T09:28:37.357Z,4.10
2022-12-08T09:31:04.996Z,4.00
2022-12-08T09:33:32.072Z,4.00
2022-12-08T09:36:03.797Z,4.10
2022-12-08T09:38:32.997Z,4.00
2022-12-08T09:41:07.512Z,3.90
2022-12-08T09:44:13.852Z,3.90
2022-12-08T09:46:42.986Z,3.90
2022-12-08T09:49:18.325Z,3.90
2022-12-08T09:51:48.722Z,3.90
2022-12-08T09:54:33.884Z,4.00
2022-12-08T09:57:08.419Z,3.90
2022-12-08T09:59:36.354Z,3.80
2022-12-08T10:02:23.707Z,3.90
2022-12-08T10:04:50.759Z,3.90
2022-12-08T10:07:26.676Z,3.80
2022-12-08T10:10:05.891Z,3.90
2022-12-08T10:12:45.552Z,3.90
2022-12-08T10:15:39.120Z,3.90
2022-12-08T10:18:24.567Z,3.90
2022-12-08T10:20:57.495Z,3.80
2022-12-08T10:23:38.107Z,3.80
2022-12-08T10:26:16.798Z,3.70
2022-12-08T10:28:45.304Z,3.80
2022-12-08T10:31:25.235Z,3.90
2022-12-08T10:34:17.752Z,3.80
2022-12-08T10:36:49.280Z,3.90
2022-12-08T10:39:34.114Z,3.80
2022-12-08T10:42:14.309Z,3.80
2022-12-08T10:45:10.739Z,3.70
2022-12-08T10:47:44.780Z,3.70
2022-12-08T10:50:28.704Z,3.80
2022-12-08T10:53:22.483Z,3.90
2022-12-08T10:56:10.344Z,3.90
2022-12-08T10:58:43.741Z,3.90
2022-12-08T11:01:14.768Z,3.90
2022-12-08T11:04:05.067Z,3.90
2022-12-08T11:06:39.309Z,4.00
2022-12-08T11:09:18.487Z,3.90
2022-12-08T11:11:57.010Z,3.90
2022-12-08T11:14:32.300Z,3.90
2022-12-08T11:17:15.828Z,3.90
2022-12-08T11:19:57.874Z,4.00
2022-12-08T11:22:46.011Z,4.00
2022-12-08T11:25:28.336Z,4.10
2022-12-08T11:27:59.955Z,4.00
2022-12-08T11:30:37.644Z,4.00
2022-12-08T11:33:23.125Z,4.00
2022-12-08T11:36:11.792Z,4.00
2022-12-08T11:38:47.420Z,4.00
2022-12-08T11:41:23.500Z,3.90
2022-12-08T11:44:32.596Z,4.00
2022-12-08T11:47:14.919Z,4.00
2022-12-08T11:49:43.334Z,4.10
2022-12-08T11:52:35.219Z,4.20
2022-12-08T11:55:15.339Z,4.30
2022-12-08T11:57:42.251Z,4.30
2022-12-08T12:00:16.418Z,4.30
2022-12-08T12:02:52.405Z,4.30
2022-12-08T12:07:08.817Z,4.20
2022-12-08T12:09:45.275Z,4.30
2022-12-08T12:12:18.172Z,4.30
2022-12-08T12:15:07.027Z,4.30
2022-12-08T12:17:50.569Z,4.40
2022-12-08T12:20:35.659Z,4.30
2022-12-08T12:23:32.175Z,4.20
2022-12-08T12:26:04.532Z,4.30
2022-12-08T12:28:53.555Z,4.30
2022-12-08T12:31:32.579Z,4.40
2022-12-08T12:34:18.684Z,4.30
2022-12-08T12:37:17.846Z,4.40
2022-12-08T12:39:59.733Z,4.50
2022-12-08T12:42:55.293Z,4.60
2022-12-08T12:45:21.934Z,4.60
2022-12-08T12:48:12.366Z,4.50
2022-12-08T12:50:55.313Z,4.50
2022-12-08T12:53:21.997Z,4.50
2022-12-08T12:56:02.413Z,4.50
2022-12-08T12:58:36.581Z,4.50
2022-12-08T13:01:38.016Z,4.50
2022-12-08T13:04:12.680Z,4.50
2022-12-08T13:06:44.293Z,4.50
2022-12-08T13:09:23.107Z,4.50
2022-12-08T13:12:10.635Z,4.50
2022-12-08T13:14:49.028Z,4.70
2022-12-08T13:17:32.393Z,4.70
2022-12-08T13:20:04.251Z,4.70
2022-12-08T13:23:27.146Z,4.70
2022-12-08T13:26:12.959Z,4.70
2022-12-08T13:28:58.583Z,4.70
2022-12-08T13:32:09.701Z,4.70
2022-12-08T13:34:49.150Z,4.80
2022-12-08T13:37:55.147Z,4.90
2022-12-08T13:40:30.062Z,4.80
2022-12-08T13:43:52.448Z,4.80
2022-12-08T13:58:35.524Z,4.80
2022-12-08T14:01:18.909Z,4.70
2022-12-08T14:04:37.180Z,4.80
2022-12-08T14:06:59.796Z,4.70
2022-12-08T14:09:49.323Z,4.70
2022-12-08T14:12:27.943Z,4.70
2022-12-08T14:15:03.687Z,4.80
2022-12-08T14:17:32.299Z,4.80
2022-12-08T14:20:29.879Z,4.80
2022-12-08T14:22:59.371Z,4.70
2022-12-08T14:25:31.664Z,4.70
2022-12-08T14:28:02.976Z,4.70
2022-12-08T14:30:37.216Z,4.70
2022-12-08T14:33:07.597Z,4.80
2022-12-08T14:35:38.212Z,4.80
2022-12-08T14:38:17.980Z,4.80
2022-12-08T14:41:06.133Z,4.80
2022-12-08T14:43:34.088Z,4.80
2022-12-08T14:46:21.583Z,4.70
2022-12-08T14:48:50.774Z,4.70
2022-12-08T14:51:20.821Z,4.60
2022-12-08T14:54:12.426Z,4.60
2022-12-08T14:56:52.094Z,4.70
2022-12-08T14:59:27.096Z,4.60
2022-12-08T15:02:24.511Z,4.60
2022-12-08T15:05:16.228Z,4.40
2022-12-08T15:07:43.023Z,4.40
2022-12-08T15:10:25.265Z,4.40
2022-12-08T15:12:59.544Z,4.40
2022-12-08T15:15:27.003Z,4.30
2022-12-08T15:18:35.885Z,4.20
2022-12-08T15:21:08.913Z,4.20
2022-12-08T15:23:45.178Z,4.10
2022-12-08T15:26:49.178Z,4.10
2022-12-08T15:29:29.850Z,4.10
2022-12-08T15:32:00.758Z,4.10
2022-12-08T15:34:27.800Z,4.10
2022-12-08T15:36:55.378Z,4.10
2022-12-08T15:39:39.132Z,4.10
2022-12-08T15:42:13.818Z,4.20
2022-12-08T15:44:40.899Z,4.20
2022-12-08T15:47:20.417Z,4.20
2022-12-08T15:49:49.761Z,4.20
2022-12-08T15:52:21.471Z,4.20
2022-12-08T15:54:49.142Z,4.20
2022-12-08T16:09:33.984Z,4.10
2022-12-08T16:12:19.631Z,4.10
2022-12-08T16:15:47.034Z,4.10
2022-12-08T16:17:34.460Z,4.10
2022-12-08T16:20:02.175Z,4.10
2022-12-08T16:25:20.992Z,4.10
2022-12-08T16:28:02.899Z,3.90
2022-12-08T16:30:32.753Z,3.90
2022-12-08T16:32:59.548Z,3.90
2022-12-08T16:35:26.482Z,3.90
2022-12-08T16:37:53.232Z,3.90
2022-12-08T16:40:20.067Z,3.90
2022-12-08T16:42:50.039Z,4.00
2022-12-08T16:45:24.302Z,3.90
2022-12-08T16:47:56.716Z,4.00
2022-12-08T16:50:29.285Z,4.00
2022-12-08T16:53:09.075Z,4.00
2022-12-08T16:55:35.939Z,4.00
2022-12-08T16:58:07.245Z,3.90
2022-12-08T17:00:36.865Z,3.90
2022-12-08T17:03:08.041Z,3.90
2022-12-08T17:05:39.306Z,4.00
2022-12-08T17:08:06.663Z,3.90
2022-12-08T17:10:35.915Z,3.80
2022-12-08T17:13:03.034Z,3.80
2022-12-08T17:15:29.916Z,3.70
2022-12-08T17:17:56.721Z,3.70
2022-12-08T17:20:26.663Z,3.70
2022-12-08T17:22:58.623Z,3.70
2022-12-08T17:25:26.937Z,3.70
2022-12-08T17:27:54.182Z,3.70
2022-12-08T17:30:21.298Z,3.70
2022-12-08T17:32:48.081Z,3.80
2022-12-08T17:35:15.258Z,3.70
2022-12-08T17:37:43.835Z,3.60
2022-12-08T17:40:11.452Z,3.50
2022-12-08T17:42:39.435Z,3.50
2022-12-08T17:45:08.261Z,3.60
2022-12-08T17:47:37.607Z,3.60
2022-12-08T17:50:07.960Z,3.60
2022-12-08T17:52:35.071Z,3.60
2022-12-08T17:55:02.962Z,3.60
2022-12-08T17:57:31.332Z,3.60
2022-12-08T18:00:00.553Z,3.60
2022-12-08T18:02:27.510Z,3.60
2022-12-08T18:04:54.286Z,3.70
2022-12-08T18:07:21.066Z,3.70
2022-12-08T18:09:47.844Z,3.70
2022-12-08T18:12:17.001Z,3.70
2022-12-08T18:14:48.190Z,3.70
2022-12-08T18:17:15.038Z,3.70
2022-12-08T18:19:41.771Z,3.70
2022-12-08T18:22:09.092Z,3.80
2022-12-08T18:24:35.884Z,3.70
2022-12-08T18:27:05.366Z,3.70
2022-12-08T18:29:32.209Z,3.70
2022-12-08T18:32:00.662Z,3.70
2022-12-08T18:34:27.465Z,3.70
2022-12-08T18:36:54.204Z,3.60
2022-12-08T18:39:30.161Z,3.70
2022-12-08T18:41:59.458Z,3.70
2022-12-08T18:44:26.354Z,3.60
2022-12-08T18:46:53.142Z,3.60
2022-12-08T18:49:20.358Z,3.60
2022-12-08T18:51:47.474Z,3.60
2022-12-08T18:54:20.133Z,3.50
2022-12-08T18:56:49.751Z,3.50
2022-12-08T18:59:16.496Z,3.40
2022-12-08T19:01:44.399Z,3.40
2022-12-08T19:04:27.970Z,3.30
2022-12-08T19:06:57.131Z,3.40
2022-12-08T19:09:28.873Z,3.40
2022-12-08T19:11:56.545Z,3.40
2022-12-08T19:14:28.271Z,3.40
2022-12-08T19:16:58.732Z,3.40
2022-12-08T19:19:28.436Z,3.40
2022-12-08T19:21:55.743Z,3.40
2022-12-08T19:24:23.851Z,3.40
2022-12-08T19:26:51.046Z,3.40
2022-12-08T19:29:18.024Z,3.40
2022-12-08T19:31:45.041Z,3.40
2022-12-08T19:34:15.391Z,3.40
2022-12-08T19:36:45.013Z,3.40
2022-12-08T19:39:35.960Z,3.40
2022-12-08T19:42:22.466Z,3.30
2022-12-08T19:44:55.213Z,3.30
2022-12-08T19:47:27.528Z,3.20
2022-12-08T19:50:15.581Z,3.30
2022-12-08T19:52:43.615Z,3.30
2022-12-08T19:55:11.358Z,3.20
2022-12-08T19:57:41.339Z,3.30
2022-12-08T20:00:10.474Z,3.30
2022-12-08T20:02:38.775Z,3.20
2022-12-08T20:05:06.811Z,3.10
2022-12-08T20:07:34.137Z,3.10
2022-12-08T20:10:06.688Z,3.10
2022-12-08T20:12:33.646Z,3.10
2022-12-08T20:15:00.512Z,3.10
2022-12-08T20:17:27.380Z,3.10
2022-12-08T20:19:54.248Z,3.00
2022-12-08T20:22:21.140Z,3.00
2022-12-08T20:24:57.212Z,3.00
2022-12-08T20:27:26.327Z,2.90
2022-12-08T20:29:53.165Z,2.90
2022-12-08T20:32:19.901Z,3.00
2022-12-08T20:34:46.715Z,3.10
2022-12-08T20:37:16.258Z,3.10
2022-12-08T20:39:42.966Z,3.10
2022-12-08T20:42:13.628Z,3.10
2022-12-08T20:44:44.435Z,3.10
2022-12-08T20:47:13.116Z,3.10
2022-12-08T20:49:40.115Z,3.00
2022-12-08T20:52:11.300Z,3.00
2022-12-08T20:54:38.905Z,3.10
2022-12-08T20:57:05.832Z,3.10
2022-12-08T20:59:33.166Z,3.20
2022-12-08T21:02:00.445Z,3.20
2022-12-08T21:04:30.013Z,3.20
2022-12-08T21:06:56.995Z,3.30
2022-12-08T21:09:24.175Z,3.30
2022-12-08T21:11:51.246Z,3.30
2022-12-08T21:14:18.110Z,3.30
2022-12-08T21:16:46.749Z,3.30
2022-12-08T21:19:13.674Z,3.40
2022-12-08T21:21:40.539Z,3.40
2022-12-08T21:24:07.838Z,3.40
2022-12-08T21:26:37.737Z,3.50
2022-12-08T21:29:05.433Z,3.50
2022-12-08T21:31:33.665Z,3.50
2022-12-08T21:34:02.909Z,3.50
2022-12-08T21:36:30.174Z,3.40
2022-12-08T21:39:02.443Z,3.40
2022-12-08T21:41:50.312Z,3.40
2022-12-08T21:44:20.547Z,3.40
2022-12-08T21:46:47.912Z,3.50
2022-12-08T21:49:16.132Z,3.50
2022-12-08T21:51:43.198Z,3.50
2022-12-08T21:54:16.749Z,3.50
2022-12-08T21:56:46.913Z,3.50
2022-12-08T21:59:13.820Z,3.50
2022-12-08T22:01:43.265Z,3.50
2022-12-08T22:04:12.502Z,3.40
2022-12-08T22:06:39.574Z,3.30
2022-12-08T22:09:07.180Z,3.30
2022-12-08T22:11:34.082Z,3.30
2022-12-08T22:14:01.002Z,3.40
2022-12-08T22:16:28.251Z,3.30
2022-12-08T22:18:55.133Z,3.40
2022-12-08T22:21:21.927Z,3.40
2022-12-08T22:23:49.787Z,3.40
2022-12-08T22:26:16.690Z,3.40
2022-12-08T22:28:44.853Z,3.50
2022-12-08T22:31:20.768Z,3.50
2022-12-08T22:33:49.677Z,3.50
2022-12-08T22:36:24.516Z,3.50
2022-12-08T22:38:53.433Z,3.50
2022-12-08T22:41:22.168Z,3.50
2022-12-08T22:43:51.272Z,3.50
2022-12-08T22:46:26.420Z,3.50
2022-12-08T22:48:54.620Z,3.50
2022-12-08T22:51:21.939Z,3.50
2022-12-08T22:53:50.373Z,3.40
2022-12-08T22:56:18.724Z,3.40
2022-12-08T22:58:45.700Z,3.30
2022-12-08T23:01:41.685Z,3.30
2022-12-08T23:04:17.237Z,3.30
2022-12-08T23:06:46.411Z,3.30
2022-12-08T23:09:13.686Z,3.20
2022-12-08T23:11:40.779Z,3.10
2022-12-08T23:14:07.512Z,3.10
2022-12-08T23:16:34.340Z,3.10
2022-12-08T23:19:01.128Z,3.10
2022-12-08T23:21:28.050Z,3.00
2022-12-08T23:23:55.134Z,3.10
2022-12-08T23:26:28.448Z,3.00
2022-12-08T23:28:56.484Z,3.00
2022-12-08T23:31:24.867Z,3.10
2022-12-08T23:33:52.949Z,3.10
2022-12-08T23:36:23.084Z,3.20
2022-12-08T23:38:49.879Z,3.20
2022-12-08T23:41:16.890Z,3.20
2022-12-08T23:43:51.505Z,3.20
2022-12-08T23:46:22.568Z,3.30
2022-12-08T23:48:51.387Z,3.20
2022-12-08T23:51:18.565Z,3.30
2022-12-08T23:53:46.909Z,3.30
2022-12-08T23:56:17.046Z,3.30
2022-12-08T23:58:44.154Z,3.30
